Time;durP1;ratioP1;P1;durP2;ratioP2;P2;SDS_P1;SDS_P2;PMS_P1;PMS_P2;Temp;Humidity;BMP_temperature;BMP_pressure;BME280_temperature;BME280_humidity;BME280_pressure;Samples;Min_cycle;Max_cycle;Signal;HPM_P1;HPM_P2
2022/12/06 00:00:03;;;;;;;5.70;5.00;;;;;;;;;;5061240;28;20695;-83
2022/12/06 00:02:31;;;;;;;4.70;4.30;;;;;;;;;;5061529;28;20217;-84
2022/12/06 00:04:58;;;;;;;5.07;4.57;;;;;;;;;;5061422;28;20762;-83
2022/12/06 00:07:26;;;;;;;4.88;4.32;;;;;;;;;;5061593;28;20236;-84
2022/12/06 00:09:53;;;;;;;5.65;4.72;;;;;;;;;;5061320;28;20221;-84
2022/12/06 00:12:22;;;;;;;4.82;4.32;;;;;;;;;;5061044;28;20577;-84
2022/12/06 00:14:49;;;;;;;4.20;3.80;;;;;;;;;;5060919;28;20269;-83
2022/12/06 00:17:17;;;;;;;5.57;4.80;;;;;;;;;;5060744;28;20616;-84
2022/12/06 00:19:44;;;;;;;3.58;3.28;;;;;;;;;;5061294;28;20312;-84
2022/12/06 00:22:12;;;;;;;4.20;3.58;;;;;;;;;;5060882;28;20232;-84
2022/12/06 00:24:39;;;;;;;3.92;3.63;;;;;;;;;;5060552;28;20236;-84
2022/12/06 00:27:07;;;;;;;4.07;3.72;;;;;;;;;;5061648;28;20221;-84
2022/12/06 00:29:36;;;;;;;5.65;5.15;;;;;;;;;;5061625;28;20709;-84
2022/12/06 00:32:04;;;;;;;5.75;5.20;;;;;;;;;;5061585;28;20201;-84
2022/12/06 00:34:31;;;;;;;5.70;5.05;;;;;;;;;;5062519;28;20717;-84
2022/12/06 00:36:59;;;;;;;4.50;4.07;;;;;;;;;;5061784;28;20240;-83
2022/12/06 00:39:26;;;;;;;2.95;2.70;;;;;;;;;;5060589;28;20257;-83
2022/12/06 00:41:56;;;;;;;3.20;2.90;;;;;;;;;;5061545;28;20308;-84
2022/12/06 00:44:23;;;;;;;3.20;2.90;;;;;;;;;;5060299;28;20363;-84
2022/12/06 00:46:52;;;;;;;3.85;3.55;;;;;;;;;;5059801;28;20194;-83
2022/12/06 00:49:20;;;;;;;4.75;4.35;;;;;;;;;;5060664;28;20622;-84
2022/12/06 00:51:47;;;;;;;4.53;4.18;;;;;;;;;;5060812;28;20244;-84
2022/12/06 00:54:15;;;;;;;4.20;3.90;;;;;;;;;;5061242;28;20622;-84
2022/12/06 00:56:43;;;;;;;4.43;4.03;;;;;;;;;;5061391;28;20265;-85
2022/12/06 00:59:11;;;;;;;4.28;3.88;;;;;;;;;;5060289;28;20313;-84
2022/12/06 01:01:38;;;;;;;4.47;4.07;;;;;;;;;;5061691;28;20197;-83
2022/12/06 01:04:08;;;;;;;4.60;3.75;;;;;;;;;;5061532;28;20225;-84
2022/12/06 01:06:37;;;;;;;5.10;4.60;;;;;;;;;;5061540;28;20676;-83
2022/12/06 01:09:07;;;;;;;3.28;2.97;;;;;;;;;;5060599;28;20285;-83
2022/12/06 01:11:35;;;;;;;5.68;5.18;;;;;;;;;;5060970;28;20666;-84
2022/12/06 01:14:03;;;;;;;4.68;4.28;;;;;;;;;;5060736;28;20202;-84
2022/12/06 01:16:31;;;;;;;4.43;3.97;;;;;;;;;;5060063;28;20269;-84
2022/12/06 01:19:01;;;;;;;3.65;2.85;;;;;;;;;;5059953;28;20229;-84
2022/12/06 01:21:30;;;;;;;4.75;4.32;;;;;;;;;;5041233;28;20293;-84
2022/12/06 01:23:58;;;;;;;4.75;4.28;;;;;;;;;;5040229;28;20294;-84
2022/12/06 01:26:28;;;;;;;5.68;5.18;;;;;;;;;;5039566;28;20676;-84
2022/12/06 01:28:57;;;;;;;3.90;3.58;;;;;;;;;;5043761;28;20646;-84
2022/12/06 01:31:24;;;;;;;3.53;3.22;;;;;;;;;;5044451;28;20785;-84
2022/12/06 01:33:52;;;;;;;4.35;3.80;;;;;;;;;;5044837;28;20702;-83
2022/12/06 01:36:22;;;;;;;5.60;4.75;;;;;;;;;;5045155;28;20270;-83
2022/12/06 01:38:52;;;;;;;4.88;4.47;;;;;;;;;;5049676;28;20272;-83
2022/12/06 01:41:20;;;;;;;4.03;3.67;;;;;;;;;;5064570;28;20186;-83
2022/12/06 01:43:48;;;;;;;3.78;3.38;;;;;;;;;;5064874;28;20205;-83
2022/12/06 01:46:25;;;;;;;3.85;3.55;;;;;;;;;;5062403;28;20244;-83
2022/12/06 01:48:59;;;;;;;4.30;3.90;;;;;;;;;;5063726;28;20481;-84
2022/12/06 01:51:27;;;;;;;3.85;3.55;;;;;;;;;;5062183;28;20227;-84
2022/12/06 01:53:56;;;;;;;3.35;3.05;;;;;;;;;;5061950;28;20293;-84
2022/12/06 01:56:24;;;;;;;2.78;2.58;;;;;;;;;;5063821;28;20266;-84
2022/12/06 01:58:54;;;;;;;3.67;3.38;;;;;;;;;;5063744;28;20322;-84
2022/12/06 02:01:22;;;;;;;3.47;3.13;;;;;;;;;;5064412;28;20178;-83
2022/12/06 02:03:50;;;;;;;3.72;3.42;;;;;;;;;;5064262;28;20233;-83
2022/12/06 02:06:17;;;;;;;2.72;2.53;;;;;;;;;;5064369;28;20232;-83
2022/12/06 02:08:45;;;;;;;5.03;4.07;;;;;;;;;;5063488;28;20251;-83
2022/12/06 02:11:14;;;;;;;3.85;3.47;;;;;;;;;;5063354;28;20285;-84
2022/12/06 02:13:42;;;;;;;5.60;4.68;;;;;;;;;;5063269;28;20244;-83
2022/12/06 02:16:31;;;;;;;6.25;5.65;;;;;;;;;;5063269;28;20221;-83
2022/12/06 02:19:04;;;;;;;4.65;4.25;;;;;;;;;;5062306;28;20225;-84
2022/12/06 02:21:41;;;;;;;4.47;3.67;;;;;;;;;;5063096;28;20197;-83
2022/12/06 02:24:45;;;;;;;3.72;3.13;;;;;;;;;;5063614;28;20237;-84
2022/12/06 02:27:50;;;;;;;5.43;4.93;;;;;;;;;;5063209;28;20185;-84
2022/12/06 02:30:35;;;;;;;6.50;5.85;;;;;;;;;;5063106;28;20308;-84
2022/12/06 02:33:08;;;;;;;7.05;5.22;;;;;;;;;;5063051;28;20209;-84
2022/12/06 02:35:40;;;;;;;4.45;4.00;;;;;;;;;;5062306;28;20221;-84
2022/12/06 02:38:12;;;;;;;4.65;4.25;;;;;;;;;;5061563;28;20202;-83
2022/12/06 02:40:43;;;;;;;4.75;4.30;;;;;;;;;;5042851;28;20226;-83
2022/12/06 02:43:15;;;;;;;3.80;3.50;;;;;;;;;;5041934;28;20225;-83
2022/12/06 02:45:48;;;;;;;3.80;3.50;;;;;;;;;;5041684;28;20211;-84
2022/12/06 02:48:17;;;;;;;3.85;3.42;;;;;;;;;;5041434;28;20186;-84
2022/12/06 02:50:51;;;;;;;4.47;4.07;;;;;;;;;;5042080;28;20260;-84
2022/12/06 02:53:20;;;;;;;3.58;3.38;;;;;;;;;;5042845;28;20215;-84
2022/12/06 02:55:49;;;;;;;3.83;3.40;;;;;;;;;;5042593;28;20202;-84
2022/12/06 02:58:16;;;;;;;3.95;3.65;;;;;;;;;;5043064;28;20277;-84
2022/12/06 03:00:46;;;;;;;3.95;3.65;;;;;;;;;;5042892;28;20316;-84
2022/12/06 03:03:33;;;;;;;3.50;2.97;;;;;;;;;;5043263;28;20202;-84
2022/12/06 03:06:24;;;;;;;3.80;3.50;;;;;;;;;;5043153;28;20647;-84
2022/12/06 03:09:03;;;;;;;2.75;2.55;;;;;;;;;;5047937;28;20228;-84
2022/12/06 03:11:40;;;;;;;3.35;3.05;;;;;;;;;;5061946;28;20186;-83
2022/12/06 03:14:12;;;;;;;2.92;2.67;;;;;;;;;;5060987;28;20299;-84
2022/12/06 03:16:48;;;;;;;3.92;3.58;;;;;;;;;;5061424;28;20197;-84
2022/12/06 03:19:19;;;;;;;3.15;2.88;;;;;;;;;;5068798;22;20229;-84
2022/12/06 03:21:50;;;;;;;3.35;3.05;;;;;;;;;;5057917;28;20205;-82
2022/12/06 03:24:18;;;;;;;3.08;2.88;;;;;;;;;;5055769;28;20239;-83
2022/12/06 03:26:48;;;;;;;2.92;2.72;;;;;;;;;;5056943;28;20288;-84
2022/12/06 03:29:19;;;;;;;2.95;2.75;;;;;;;;;;5054968;28;20299;-84
2022/12/06 03:31:48;;;;;;;3.28;3.08;;;;;;;;;;5055202;28;20278;-83
2022/12/06 03:34:21;;;;;;;2.83;2.63;;;;;;;;;;5055915;28;20289;-84
2022/12/06 03:36:50;;;;;;;2.90;2.70;;;;;;;;;;5055251;28;20190;-84
2022/12/06 03:39:26;;;;;;;2.72;2.53;;;;;;;;;;5064986;28;20323;-84
2022/12/06 03:41:57;;;;;;;2.20;2.00;;;;;;;;;;5076040;28;20555;-84
2022/12/06 03:44:25;;;;;;;1.92;1.83;;;;;;;;;;5075830;28;20265;-83
2022/12/06 03:46:59;;;;;;;1.95;1.85;;;;;;;;;;5076039;28;20278;-84
2022/12/06 03:49:31;;;;;;;2.42;2.22;;;;;;;;;;5075057;28;20585;-82
2022/12/06 03:51:58;;;;;;;3.10;2.90;;;;;;;;;;5075444;28;20239;-84
2022/12/06 03:54:26;;;;;;;2.53;2.33;;;;;;;;;;5075492;28;20284;-84
2022/12/06 03:56:54;;;;;;;2.72;2.53;;;;;;;;;;5075842;28;20291;-84
2022/12/06 03:59:21;;;;;;;2.03;1.92;;;;;;;;;;5075308;28;20311;-83
2022/12/06 04:01:48;;;;;;;2.50;2.30;;;;;;;;;;5075027;28;20295;-83
2022/12/06 04:04:18;;;;;;;2.10;2.00;;;;;;;;;;5075194;28;20233;-84
2022/12/06 04:06:45;;;;;;;3.22;2.92;;;;;;;;;;5074703;28;20201;-82
2022/12/06 04:11:58;;;;;;;3.20;2.90;;;;;;;;;;5074599;28;20188;-82
2022/12/06 04:14:31;;;;;;;2.80;2.60;;;;;;;;;;5074863;28;20232;-83
2022/12/06 04:19:45;;;;;;;2.03;1.92;;;;;;;;;;5074723;28;20234;-84
2022/12/06 04:24:57;;;;;;;2.60;2.40;;;;;;;;;;5075458;28;20334;-84
2022/12/06 04:38:40;;;;;;;2.92;2.63;;;;;;;;;;5073827;28;20677;-83
2022/12/06 04:41:08;;;;;;;2.33;2.13;;;;;;;;;;5074436;28;20668;-84
2022/12/06 04:43:43;;;;;;;1.98;1.88;;;;;;;;;;5074357;28;20222;-83
2022/12/06 04:46:11;;;;;;;3.33;3.05;;;;;;;;;;5074894;28;20196;-83
2022/12/06 04:48:39;;;;;;;3.35;3.05;;;;;;;;;;5075126;28;20216;-84
2022/12/06 04:51:11;;;;;;;5.60;3.03;;;;;;;;;;5074350;28;20308;-84
2022/12/06 04:53:39;;;;;;;3.30;3.00;;;;;;;;;;5075268;28;20204;-83
2022/12/06 04:56:07;;;;;;;2.92;2.42;;;;;;;;;;5075085;28;20288;-83
2022/12/06 04:58:35;;;;;;;1.95;1.85;;;;;;;;;;5073952;28;20634;-82
2022/12/06 05:01:02;;;;;;;2.65;2.45;;;;;;;;;;5074348;28;20257;-83
2022/12/06 05:03:29;;;;;;;2.80;2.50;;;;;;;;;;5078155;28;20287;-84
2022/12/06 05:05:57;;;;;;;2.95;2.70;;;;;;;;;;5078414;28;20211;-84
2022/12/06 05:08:26;;;;;;;3.35;3.05;;;;;;;;;;5078144;28;20757;-83
2022/12/06 05:10:53;;;;;;;2.65;2.38;;;;;;;;;;5078270;28;20658;-83
2022/12/06 05:13:21;;;;;;;3.15;2.95;;;;;;;;;;5078739;28;20272;-81
2022/12/06 05:15:53;;;;;;;2.80;2.60;;;;;;;;;;5078245;28;20697;-83
2022/12/06 05:18:21;;;;;;;2.20;2.10;;;;;;;;;;5078524;28;20288;-84
2022/12/06 05:20:48;;;;;;;2.80;2.60;;;;;;;;;;5078733;28;20253;-84
2022/12/06 05:23:16;;;;;;;2.72;2.53;;;;;;;;;;5078873;28;20274;-83
2022/12/06 05:25:45;;;;;;;4.18;3.03;;;;;;;;;;5079185;28;20648;-82
2022/12/06 05:28:12;;;;;;;3.40;3.10;;;;;;;;;;5079177;28;20269;-84
2022/12/06 05:30:40;;;;;;;2.63;2.42;;;;;;;;;;5078969;28;20220;-83
2022/12/06 05:33:07;;;;;;;3.05;2.63;;;;;;;;;;5083317;28;20208;-87
2022/12/06 05:35:35;;;;;;;3.38;3.08;;;;;;;;;;5089650;28;20645;-87
2022/12/06 05:38:04;;;;;;;3.03;2.72;;;;;;;;;;5088433;28;20208;-82
2022/12/06 05:40:31;;;;;;;2.75;2.55;;;;;;;;;;5060385;28;20316;-84
2022/12/06 05:43:00;;;;;;;2.75;2.55;;;;;;;;;;5061911;28;20265;-84
2022/12/06 05:45:28;;;;;;;3.17;2.88;;;;;;;;;;5064846;28;20587;-84
2022/12/06 05:47:55;;;;;;;2.90;2.70;;;;;;;;;;5063565;28;20265;-85
2022/12/06 05:50:23;;;;;;;2.72;2.47;;;;;;;;;;5062349;28;20248;-85
2022/12/06 05:52:54;;;;;;;2.47;2.25;;;;;;;;;;5061165;28;20233;-85
2022/12/06 05:55:22;;;;;;;2.67;2.30;;;;;;;;;;5060528;28;20255;-85
2022/12/06 05:57:49;;;;;;;2.90;2.70;;;;;;;;;;5047464;28;20305;-83
2022/12/06 06:00:20;;;;;;;3.00;2.75;;;;;;;;;;5040293;28;20269;-84
2022/12/06 06:02:48;;;;;;;2.83;2.63;;;;;;;;;;5041254;28;20223;-85
2022/12/06 06:05:16;;;;;;;2.90;2.70;;;;;;;;;;5041425;28;20237;-85
2022/12/06 06:07:43;;;;;;;2.70;2.47;;;;;;;;;;5040021;28;20206;-84
2022/12/06 06:10:11;;;;;;;2.95;2.75;;;;;;;;;;5056041;28;20221;-84
2022/12/06 06:12:39;;;;;;;3.63;3.00;;;;;;;;;;5061288;28;20288;-84
2022/12/06 06:15:08;;;;;;;2.88;2.50;;;;;;;;;;5060888;28;20580;-84
2022/12/06 06:17:37;;;;;;;2.80;2.60;;;;;;;;;;5061341;28;20347;-85
2022/12/06 06:20:05;;;;;;;3.10;2.75;;;;;;;;;;5060927;28;20289;-85
2022/12/06 06:22:33;;;;;;;3.88;3.22;;;;;;;;;;5060744;28;20698;-83
2022/12/06 06:25:01;;;;;;;2.65;2.45;;;;;;;;;;5061141;28;20678;-85
2022/12/06 06:27:31;;;;;;;3.15;2.88;;;;;;;;;;5061551;28;20573;-84
2022/12/06 06:29:59;;;;;;;3.72;2.80;;;;;;;;;;5062739;28;20253;-84
2022/12/06 06:32:26;;;;;;;3.17;2.88;;;;;;;;;;5063949;28;20451;-84
2022/12/06 06:34:55;;;;;;;3.28;3.05;;;;;;;;;;5062602;28;20620;-83
2022/12/06 06:37:23;;;;;;;3.40;3.10;;;;;;;;;;5059156;28;20233;-85
2022/12/06 06:39:50;;;;;;;2.83;2.63;;;;;;;;;;5071971;28;20267;-84
2022/12/06 06:42:18;;;;;;;2.85;2.65;;;;;;;;;;5078748;28;20267;-83
2022/12/06 06:44:45;;;;;;;3.10;2.80;;;;;;;;;;5078169;28;20233;-84
2022/12/06 06:47:13;;;;;;;3.33;3.05;;;;;;;;;;5058360;28;20233;-84
2022/12/06 06:49:40;;;;;;;2.72;2.40;;;;;;;;;;5059797;28;20296;-85
2022/12/06 06:52:10;;;;;;;2.97;2.63;;;;;;;;;;5058388;28;20568;-85
2022/12/06 06:54:37;;;;;;;3.50;3.22;;;;;;;;;;5059225;28;20225;-84
2022/12/06 06:57:05;;;;;;;3.25;2.95;;;;;;;;;;5059089;28;20279;-85
2022/12/06 06:59:32;;;;;;;3.05;2.85;;;;;;;;;;5058399;28;20225;-85
2022/12/06 07:02:00;;;;;;;3.05;2.85;;;;;;;;;;5059293;28;20249;-82
2022/12/06 07:04:27;;;;;;;3.00;2.80;;;;;;;;;;5059503;28;20604;-84
2022/12/06 07:06:55;;;;;;;4.53;3.50;;;;;;;;;;5060122;28;20613;-83
2022/12/06 07:09:23;;;;;;;3.20;2.90;;;;;;;;;;5069153;28;20677;-83
2022/12/06 07:11:51;;;;;;;2.58;2.38;;;;;;;;;;5080733;28;20288;-84
2022/12/06 07:14:18;;;;;;;2.65;2.45;;;;;;;;;;5079979;28;20286;-84
2022/12/06 07:16:46;;;;;;;3.15;2.85;;;;;;;;;;5068592;28;20236;-82
2022/12/06 07:19:13;;;;;;;2.90;2.70;;;;;;;;;;5057629;28;20717;-84
2022/12/06 07:21:41;;;;;;;2.47;2.28;;;;;;;;;;5056867;28;20707;-83
2022/12/06 07:24:08;;;;;;;2.35;2.25;;;;;;;;;;5054970;28;20233;-82
2022/12/06 07:26:37;;;;;;;5.32;2.95;;;;;;;;;;5056219;28;20289;-84
2022/12/06 07:29:05;;;;;;;2.65;2.45;;;;;;;;;;5056010;28;20224;-83
2022/12/06 07:31:32;;;;;;;2.65;2.45;;;;;;;;;;5055854;28;20225;-84
2022/12/06 07:34:02;;;;;;;2.45;2.25;;;;;;;;;;5057781;28;20201;-85
2022/12/06 07:36:31;;;;;;;2.53;2.40;;;;;;;;;;5056920;28;20232;-85
2022/12/06 07:39:00;;;;;;;2.25;2.05;;;;;;;;;;5062913;28;20619;-82
2022/12/06 07:47:02;;;;;;;1.88;1.77;;;;;;;;;;5061827;28;20208;-84
2022/12/06 07:49:30;;;;;;;2.50;2.40;;;;;;;;;;5055346;28;20224;-84
2022/12/06 07:51:58;;;;;;;3.22;3.03;;;;;;;;;;5055428;28;20217;-84
2022/12/06 07:54:25;;;;;;;2.72;2.53;;;;;;;;;;5055367;28;20291;-82
2022/12/06 07:56:55;;;;;;;3.25;2.97;;;;;;;;;;5055191;28;20205;-84
2022/12/06 07:59:24;;;;;;;2.65;2.45;;;;;;;;;;5054671;28;20706;-85
2022/12/06 08:01:52;;;;;;;2.95;2.75;;;;;;;;;;5054422;28;20225;-83
2022/12/06 08:04:20;;;;;;;2.55;2.35;;;;;;;;;;5055060;28;20699;-84
2022/12/06 08:06:47;;;;;;;2.33;2.22;;;;;;;;;;5055448;28;20625;-84
2022/12/06 08:09:15;;;;;;;2.55;2.35;;;;;;;;;;5055614;28;20313;-84
2022/12/06 08:11:43;;;;;;;3.30;3.00;;;;;;;;;;5055996;28;20212;-84
2022/12/06 08:14:11;;;;;;;2.97;2.78;;;;;;;;;;5055080;28;20289;-82
2022/12/06 08:16:40;;;;;;;2.90;2.70;;;;;;;;;;5055141;28;20284;-85
2022/12/06 08:19:08;;;;;;;3.03;2.83;;;;;;;;;;5055139;28;20241;-83
2022/12/06 08:21:36;;;;;;;3.28;3.00;;;;;;;;;;5055313;28;20240;-84
2022/12/06 08:24:03;;;;;;;3.25;2.95;;;;;;;;;;5055094;28;20299;-84
2022/12/06 08:26:31;;;;;;;3.95;2.70;;;;;;;;;;5055095;28;20677;-83
2022/12/06 08:29:01;;;;;;;3.45;3.15;;;;;;;;;;5054329;28;20203;-84
2022/12/06 08:31:29;;;;;;;2.88;2.67;;;;;;;;;;5054979;28;20965;-84
2022/12/06 08:33:58;;;;;;;3.60;2.63;;;;;;;;;;5054867;28;20666;-84
2022/12/06 08:36:26;;;;;;;2.72;2.40;;;;;;;;;;5054246;28;20244;-84
2022/12/06 08:38:54;;;;;;;2.83;2.58;;;;;;;;;;5060356;28;20215;-85
2022/12/06 08:44:11;;;;;;;3.15;2.85;;;;;;;;;;5074871;28;20196;-84
2022/12/06 08:46:39;;;;;;;2.90;2.60;;;;;;;;;;5064904;28;20297;-84
2022/12/06 08:49:08;;;;;;;3.38;3.05;;;;;;;;;;5054249;28;20290;-87
2022/12/06 08:51:36;;;;;;;3.30;3.00;;;;;;;;;;5054844;28;20278;-85
2022/12/06 08:54:05;;;;;;;2.88;2.53;;;;;;;;;;5054163;28;20251;-86
2022/12/06 08:56:32;;;;;;;2.75;2.22;;;;;;;;;;5054950;28;20241;-86
2022/12/06 08:59:00;;;;;;;2.90;2.70;;;;;;;;;;5055017;28;20206;-85
2022/12/06 09:01:31;;;;;;;2.85;2.65;;;;;;;;;;5054915;28;20211;-85
2022/12/06 09:03:59;;;;;;;2.17;2.08;;;;;;;;;;5055565;28;20307;-85
2022/12/06 09:06:29;;;;;;;2.38;2.17;;;;;;;;;;5054379;28;20229;-85
2022/12/06 09:08:57;;;;;;;3.05;2.53;;;;;;;;;;5061253;28;20205;-86
2022/12/06 09:11:25;;;;;;;2.40;2.20;;;;;;;;;;5073836;28;20201;-86
2022/12/06 09:13:53;;;;;;;2.60;2.40;;;;;;;;;;5073810;28;20288;-86
2022/12/06 09:16:23;;;;;;;2.75;2.55;;;;;;;;;;5066774;28;20292;-85
2022/12/06 09:18:51;;;;;;;1.92;1.67;;;;;;;;;;5053543;28;20233;-84
2022/12/06 09:21:21;;;;;;;3.72;2.22;;;;;;;;;;5053883;28;20236;-84
2022/12/06 09:23:50;;;;;;;2.60;2.13;;;;;;;;;;5053589;28;20308;-85
2022/12/06 09:26:18;;;;;;;2.70;2.50;;;;;;;;;;5054591;28;20297;-86
2022/12/06 09:28:48;;;;;;;3.13;2.58;;;;;;;;;;5059011;28;20297;-86
2022/12/06 09:31:16;;;;;;;2.72;2.53;;;;;;;;;;5059185;28;20244;-86
2022/12/06 09:33:43;;;;;;;3.08;2.88;;;;;;;;;;5058288;28;20201;-85
2022/12/06 09:36:14;;;;;;;2.75;2.55;;;;;;;;;;5057965;28;20201;-86
2022/12/06 09:38:43;;;;;;;3.00;2.58;;;;;;;;;;5058087;28;20238;-86
2022/12/06 09:41:32;;;;;;;2.60;2.40;;;;;;;;;;5058178;28;20272;-85
2022/12/06 09:44:14;;;;;;;3.17;2.88;;;;;;;;;;5057603;28;20304;-86
2022/12/06 09:46:56;;;;;;;3.35;2.88;;;;;;;;;;5059673;28;20335;-87
2022/12/06 09:49:32;;;;;;;2.63;2.42;;;;;;;;;;5062156;28;20269;-86
2022/12/06 09:52:33;;;;;;;2.80;2.60;;;;;;;;;;5063637;28;20223;-86
2022/12/06 09:55:14;;;;;;;3.13;2.60;;;;;;;;;;5061634;28;20198;-84
2022/12/06 09:57:48;;;;;;;5.20;3.95;;;;;;;;;;5062547;28;20205;-87
2022/12/06 10:00:18;;;;;;;3.38;2.83;;;;;;;;;;5062001;28;20225;-87
2022/12/06 10:03:07;;;;;;;4.22;3.33;;;;;;;;;;5063733;28;20217;-87
2022/12/06 10:05:49;;;;;;;3.03;2.83;;;;;;;;;;5063638;28;20452;-87
2022/12/06 10:08:27;;;;;;;4.18;3.63;;;;;;;;;;5063418;28;20273;-87
2022/12/06 10:10:58;;;;;;;3.13;2.83;;;;;;;;;;5081303;28;20244;-87
2022/12/06 10:13:43;;;;;;;4.05;3.33;;;;;;;;;;5082565;28;20264;-87
2022/12/06 10:16:19;;;;;;;4.32;3.38;;;;;;;;;;5076193;28;20572;-86
2022/12/06 10:19:03;;;;;;;3.58;3.28;;;;;;;;;;5063110;28;20182;-87
2022/12/06 10:21:42;;;;;;;3.35;2.85;;;;;;;;;;5061580;28;20584;-87
2022/12/06 10:24:28;;;;;;;3.55;3.22;;;;;;;;;;5061768;28;20247;-87
2022/12/06 10:26:58;;;;;;;4.10;3.22;;;;;;;;;;5061328;28;20311;-86
2022/12/06 10:29:34;;;;;;;3.95;3.55;;;;;;;;;;5058574;28;20260;-84
2022/12/06 10:32:04;;;;;;;3.70;3.30;;;;;;;;;;5056792;28;20458;-86
2022/12/06 10:34:44;;;;;;;3.95;3.15;;;;;;;;;;5057230;28;20254;-84
2022/12/06 10:37:22;;;;;;;4.35;3.50;;;;;;;;;;5058625;28;20197;-82
2022/12/06 10:39:54;;;;;;;2.88;2.60;;;;;;;;;;5059432;28;20308;-83
2022/12/06 10:42:31;;;;;;;3.97;3.63;;;;;;;;;;5059202;28;20290;-83
2022/12/06 10:47:02;;;;;;;3.58;3.10;;;;;;;;;;5058466;28;20233;-85
2022/12/06 10:47:55;;;;;;;5.13;3.60;;;;;;;;;;5058656;28;20205;-84
2022/12/06 10:50:27;;;;;;;3.47;3.05;;;;;;;;;;5058702;28;20226;-85
2022/12/06 10:52:59;;;;;;;2.88;2.58;;;;;;;;;;5058348;28;20224;-83
2022/12/06 10:55:30;;;;;;;3.90;3.33;;;;;;;;;;5059394;28;20186;-83
2022/12/06 10:58:10;;;;;;;3.25;2.95;;;;;;;;;;5060502;28;20272;-87
2022/12/06 11:00:51;;;;;;;2.22;2.03;;;;;;;;;;5060210;28;20304;-87
2022/12/06 11:03:24;;;;;;;2.90;2.60;;;;;;;;;;5060214;28;20227;-87
2022/12/06 11:05:56;;;;;;;4.38;3.17;;;;;;;;;;5061781;28;20214;-87
2022/12/06 11:08:28;;;;;;;2.95;2.65;;;;;;;;;;5061895;28;20591;-88
2022/12/06 11:10:57;;;;;;;4.40;3.35;;;;;;;;;;5080276;28;20358;-87
2022/12/06 11:13:34;;;;;;;3.05;2.78;;;;;;;;;;5080339;28;20787;-88
2022/12/06 11:16:09;;;;;;;2.85;2.55;;;;;;;;;;5080146;28;20270;-87
2022/12/06 11:18:37;;;;;;;4.28;3.22;;;;;;;;;;5080153;28;20276;-87
2022/12/06 11:21:13;;;;;;;3.83;2.95;;;;;;;;;;5079616;28;20236;-88
2022/12/06 11:23:51;;;;;;;3.25;2.80;;;;;;;;;;5081019;28;20296;-87
2022/12/06 11:26:34;;;;;;;2.22;2.10;;;;;;;;;;5080383;28;20647;-87
2022/12/06 11:29:05;;;;;;;2.28;2.08;;;;;;;;;;5080584;28;20185;-88
2022/12/06 11:31:38;;;;;;;2.38;2.17;;;;;;;;;;5081265;28;20186;-88
2022/12/06 11:34:09;;;;;;;2.55;2.35;;;;;;;;;;5082319;28;20294;-88
2022/12/06 11:36:36;;;;;;;2.13;1.92;;;;;;;;;;5081558;28;20181;-87
2022/12/06 11:39:05;;;;;;;2.20;2.00;;;;;;;;;;5080916;28;20562;-87
2022/12/06 11:41:36;;;;;;;1.90;1.80;;;;;;;;;;5081806;28;20283;-87
2022/12/06 11:44:04;;;;;;;1.95;1.85;;;;;;;;;;5080066;28;20756;-87
2022/12/06 11:46:33;;;;;;;2.40;1.83;;;;;;;;;;5079838;28;20207;-87
2022/12/06 11:49:11;;;;;;;2.42;2.22;;;;;;;;;;5078405;28;20268;-87
2022/12/06 11:51:38;;;;;;;2.00;1.60;;;;;;;;;;5080026;28;20189;-88
2022/12/06 11:54:14;;;;;;;2.15;1.90;;;;;;;;;;5080516;28;20254;-88
2022/12/06 11:56:42;;;;;;;1.83;1.60;;;;;;;;;;5079529;28;20182;-88
2022/12/06 11:59:24;;;;;;;2.17;1.98;;;;;;;;;;5079700;28;20221;-87
2022/12/06 12:01:55;;;;;;;1.52;1.42;;;;;;;;;;5080069;28;20249;-88
2022/12/06 12:04:35;;;;;;;1.65;1.55;;;;;;;;;;5079468;28;20211;-88
2022/12/06 12:07:11;;;;;;;1.75;1.65;;;;;;;;;;5078956;28;20219;-87
2022/12/06 12:09:49;;;;;;;1.88;1.77;;;;;;;;;;5066093;28;20256;-88
2022/12/06 12:12:21;;;;;;;1.85;1.75;;;;;;;;;;5057811;28;20189;-87
2022/12/06 12:14:55;;;;;;;3.55;2.08;;;;;;;;;;5057949;28;20173;-87
2022/12/06 12:17:30;;;;;;;2.00;1.75;;;;;;;;;;5059142;28;20180;-88
2022/12/06 12:20:01;;;;;;;2.25;2.05;;;;;;;;;;5057965;28;20236;-87
2022/12/06 12:22:36;;;;;;;2.67;2.35;;;;;;;;;;5059307;28;20188;-88
2022/12/06 12:25:22;;;;;;;1.90;1.77;;;;;;;;;;5057452;28;20220;-87
2022/12/06 12:27:51;;;;;;;1.95;1.85;;;;;;;;;;5057165;28;20240;-88
2022/12/06 12:30:35;;;;;;;2.30;2.10;;;;;;;;;;5056956;28;20229;-88
2022/12/06 12:33:21;;;;;;;2.13;1.88;;;;;;;;;;5056846;28;20193;-87
2022/12/06 12:35:55;;;;;;;11.30;4.78;;;;;;;;;;5058286;28;20284;-87
2022/12/06 12:38:32;;;;;;;29.80;24.95;;;;;;;;;;5058875;28;20241;-88
2022/12/06 12:41:02;;;;;;;11.50;10.30;;;;;;;;;;5058261;28;20658;-88
2022/12/06 12:43:32;;;;;;;6.18;5.03;;;;;;;;;;5058620;28;20201;-87
2022/12/06 12:46:17;;;;;;;3.55;3.25;;;;;;;;;;5057349;28;20225;-87
2022/12/06 12:48:49;;;;;;;2.85;2.53;;;;;;;;;;5057786;28;20202;-87
2022/12/06 12:51:29;;;;;;;1.90;1.80;;;;;;;;;;5058529;28;20635;-88
2022/12/06 12:53:59;;;;;;;2.53;2.08;;;;;;;;;;5058552;28;20189;-87
2022/12/06 12:56:44;;;;;;;2.33;2.08;;;;;;;;;;5059763;28;20186;-87
2022/12/06 12:59:16;;;;;;;1.98;1.77;;;;;;;;;;5058936;28;20271;-88
2022/12/06 13:01:48;;;;;;;1.73;1.63;;;;;;;;;;5057029;28;20277;-88
2022/12/06 13:04:34;;;;;;;1.98;1.88;;;;;;;;;;5058770;28;20260;-87
2022/12/06 13:07:04;;;;;;;2.40;2.20;;;;;;;;;;5059494;28;20297;-85
2022/12/06 13:09:38;;;;;;;2.88;2.50;;;;;;;;;;5058393;28;20317;-86
2022/12/06 13:12:11;;;;;;;2.85;2.63;;;;;;;;;;5060711;28;20190;-87
2022/12/06 13:14:41;;;;;;;2.35;2.15;;;;;;;;;;5060769;28;20189;-85
2022/12/06 13:17:10;;;;;;;1.70;1.60;;;;;;;;;;5059940;28;20289;-85
2022/12/06 13:19:44;;;;;;;1.70;1.60;;;;;;;;;;5059191;28;20649;-85
2022/12/06 13:22:19;;;;;;;2.45;2.25;;;;;;;;;;5058581;28;20557;-85
2022/12/06 13:24:49;;;;;;;2.58;2.38;;;;;;;;;;5061963;28;20375;-85
2022/12/06 13:27:19;;;;;;;8.38;6.10;;;;;;;;;;5061952;28;20224;-84
2022/12/06 13:29:50;;;;;;;2.65;2.17;;;;;;;;;;5062559;28;20218;-85
2022/12/06 13:32:20;;;;;;;3.97;3.05;;;;;;;;;;5063537;28;20174;-86
2022/12/06 13:34:52;;;;;;;15.90;9.75;;;;;;;;;;5063365;28;20189;-86
2022/12/06 13:37:34;;;;;;;14.88;9.45;;;;;;;;;;5062709;28;20194;-86
2022/12/06 13:40:02;;;;;;;13.05;7.65;;;;;;;;;;5063056;28;20230;-86
2022/12/06 13:42:45;;;;;;;10.88;6.80;;;;;;;;;;5063026;28;20204;-86
2022/12/06 13:45:39;;;;;;;6.40;4.80;;;;;;;;;;5061534;28;20316;-86
2022/12/06 13:48:48;;;;;;;3.10;2.45;;;;;;;;;;5042217;28;20217;-85
2022/12/06 13:51:47;;;;;;;3.08;2.53;;;;;;;;;;5042000;28;20210;-85
2022/12/06 13:54:41;;;;;;;2.83;2.50;;;;;;;;;;5042587;28;20206;-85
2022/12/06 13:57:24;;;;;;;2.22;1.92;;;;;;;;;;5041767;28;20213;-86
2022/12/06 13:59:52;;;;;;;2.78;2.33;;;;;;;;;;5042728;28;20715;-86
2022/12/06 14:02:53;;;;;;;4.20;3.38;;;;;;;;;;5042283;28;20287;-85
2022/12/06 14:06:01;;;;;;;3.20;2.47;;;;;;;;;;5043246;28;20210;-87
2022/12/06 14:08:40;;;;;;;3.13;2.83;;;;;;;;;;5048082;28;20271;-86
2022/12/06 14:11:24;;;;;;;13.13;7.97;;;;;;;;;;5083008;28;20216;-86
2022/12/06 14:14:02;;;;;;;3.65;3.05;;;;;;;;;;5083372;28;20293;-86
2022/12/06 14:16:34;;;;;;;2.65;2.40;;;;;;;;;;5075896;28;20193;-86
2022/12/06 14:19:13;;;;;;;3.53;2.50;;;;;;;;;;5063676;28;20209;-85
2022/12/06 14:21:51;;;;;;;3.05;2.70;;;;;;;;;;5063643;28;20277;-86
2022/12/06 14:24:33;;;;;;;2.80;2.60;;;;;;;;;;5063730;28;20738;-86
2022/12/06 14:27:06;;;;;;;2.58;2.38;;;;;;;;;;5063598;28;20693;-86
2022/12/06 14:29:34;;;;;;;1.88;1.77;;;;;;;;;;5063614;28;20304;-85
2022/12/06 14:32:02;;;;;;;2.03;1.92;;;;;;;;;;5062407;28;20847;-86
2022/12/06 14:34:34;;;;;;;3.25;2.63;;;;;;;;;;5060995;28;20288;-86
2022/12/06 14:37:11;;;;;;;3.47;3.17;;;;;;;;;;5062583;28;20284;-85
2022/12/06 14:39:40;;;;;;;3.50;2.90;;;;;;;;;;5063307;28;20308;-87
2022/12/06 14:45:05;;;;;;;3.17;2.88;;;;;;;;;;5063134;28;20181;-85
2022/12/06 14:47:33;;;;;;;3.20;2.75;;;;;;;;;;5062814;28;20296;-86
2022/12/06 14:52:58;;;;;;;2.58;2.30;;;;;;;;;;5062825;28;20228;-86
2022/12/06 14:55:29;;;;;;;2.65;2.45;;;;;;;;;;5062474;28;20730;-85
2022/12/06 14:57:59;;;;;;;2.40;2.20;;;;;;;;;;5062681;28;20293;-86
2022/12/06 15:00:34;;;;;;;2.53;2.33;;;;;;;;;;5062135;28;20654;-86
2022/12/06 15:03:29;;;;;;;2.38;2.17;;;;;;;;;;5063142;28;20623;-86
2022/12/06 15:06:15;;;;;;;2.55;2.30;;;;;;;;;;5064328;28;20206;-87
2022/12/06 15:08:44;;;;;;;6.07;4.47;;;;;;;;;;5067669;28;20681;-86
2022/12/06 15:14:28;;;;;;;10.23;8.85;;;;;;;;;;5035236;28;20201;-86
2022/12/06 15:17:01;;;;;;;8.88;6.22;;;;;;;;;;5082475;28;20648;-86
2022/12/06 15:19:29;;;;;;;3.55;3.20;;;;;;;;;;5081547;28;20643;-84
2022/12/06 15:21:57;;;;;;;3.83;3.00;;;;;;;;;;5078631;28;20201;-85
2022/12/06 15:24:26;;;;;;;3.97;3.33;;;;;;;;;;5079877;28;20677;-84
2022/12/06 15:26:56;;;;;;;4.18;3.75;;;;;;;;;;5078905;28;20633;-83
2022/12/06 15:29:23;;;;;;;10.75;9.45;;;;;;;;;;5074989;28;20549;-83
2022/12/06 15:31:54;;;;;;;12.35;8.40;;;;;;;;;;5074639;28;20290;-83
2022/12/06 15:34:26;;;;;;;9.63;8.13;;;;;;;;;;5074636;28;20185;-81
2022/12/06 15:36:54;;;;;;;10.25;6.65;;;;;;;;;;5074639;28;20201;-81
2022/12/06 15:39:22;;;;;;;10.00;7.65;;;;;;;;;;5074467;28;20232;-83
2022/12/06 15:41:51;;;;;;;38.65;25.85;;;;;;;;;;5075088;28;20201;-82
2022/12/06 15:44:22;;;;;;;16.33;7.82;;;;;;;;;;5074639;28;20284;-82
2022/12/06 15:46:50;;;;;;;9.98;6.65;;;;;;;;;;5074754;28;20292;-82